Главная страница
METAR-TAF:

METAR-TAF

Аэропорты :

Каракас, Венесуэла

широта: 10-36N, долгота: 066-59W, высота над уровнем моря: 43 м

Текущие метеонаблюдения

Эта сводка был подготовлена 44 минут назад, в 22:00 UTC
Ветер 5 Узел от восточно-северо-восточный
Температура 28°C
Влажность 62%
Давление 1004 hPa
Видимость 10 км и более
Отдельные облака на высоте 1600 фута

METAR: SVMI 222200Z 07005KT 9999 SCT016 28/20 Q1004

Время: 18:44 (22:44 UTC)

Прогноз

Эта сводка был подготовлена 12 часа и 44 минут назад, в 10:00 UTC
Прогноз действительный с 22-го 12 UTC до 23-го 12 UTC
Ветер 5 Узел от восточный
Видимость 10 км и более
Отдельные облака на высоте 1600 фута
временами
С 22-го 12 UTC до 22-го 16 UTC
Ветер 9 Узел от восточный
Видимость 10 км и более
Рассеянная облачность на высоте 1600 фута

TAF: SVMI 221000Z 2212/2312 09005KT 9999 SCT016 TX32/18Z TN24/08Z TEMPO 2212/2216 09009KT 9999 BKN016

Метеонаблюдения и прогнозы для более 4000 аэропортов (сводки METAR и TAF).

Имеющиеся станции представлены на карте желтыми и красными точками.

Чтобы увидеть название станции, наведите на нее мышь.

Затем щелкните, чтобы увидеть метеонаблюдения и метеопрогнозы.

Управление картой: чтобы увеличить масштаб, щелкните зеленые кнопки с черным крестиком; чтобы уменьшить масштаб, щелкните зеленую кнопку с тире; для просмотра соседних карт щелкайте зеленые стрелки.


METAR-TAF: